American Phoenix — WDG2754 — position and weather

sailwx.info

Track history (hours):
 
Tides and Currents Weather Stations Pressure Air Temp Water Temp Dewpoint Dewpoint Depression Visibility Wind Speed Wind Dir Waves Ship Positions

American Phoenix

Owner: Seabulk Tankers, Inc., Fort Lauderdale, FL. More information available from US FCC via Universal Licensing System.

Last reported at 2018-Apr-18 12:50 UTC. Time now 2018-Apr-24 14:29 UTC.
Position N 24°25' W 081°14'.

Length 184 m; draft 8.3 m.

Type: Ship. MMSI: 367518920.

Date/timePositionNaut miles runAvg speedWind from/ knotsBaromVisibWave heightAir tempDewpointWater temp
2018-Apr-18 12:50N 24°25' W 081°14'514.8
2018-Apr-18 12:29N 24°26' W 081°09'814.7
2018-Apr-18 11:59N 24°28' W 081°01'714.6
2018-Apr-18 11:29N 24°31' W 080°53'714.5
2018-Apr-18 11:00N 24°33' W 080°46'813.9
2018-Apr-18 10:27N 24°37' W 080°39'614.0
2018-Apr-18 10:00N 24°41' W 080°33'814.2
2018-Apr-18 09:27N 24°45' W 080°26'613.9
2018-Apr-18 09:00N 24°49' W 080°21'713.1
2018-Apr-18 08:30N 24°53' W 080°15'612.3
2018-Apr-18 08:00N 24°57' W 080°10'1011.8
2018-Apr-18 07:10N 25°05' W 080°05'411.7
2018-Apr-18 06:50N 25°09' W 080°03'411.5
2018-Apr-18 06:30N 25°12' W 080°01'611.3
2018-Apr-18 06:00N 25°17' W 079°58'511.1
2018-Apr-18 05:30N 25°23' W 079°57'511.0
2018-Apr-18 05:00N 25°28' W 079°56'611.1
2018-Apr-18 04:30N 25°34' W 079°55'611.2
2018-Apr-18 04:00N 25°39' W 079°56'611.7
2018-Apr-18 03:30N 25°45' W 079°58'611.9
2018-Apr-18 03:00N 25°50' W 080°00'611.6
2018-Apr-18 02:30N 25°56' W 080°00'611.9
2018-Apr-18 02:00N 26°02' W 080°00'611.8
2018-Apr-18 01:30N 26°08' W 079°60'611.8
2018-Apr-18 01:00N 26°14' W 079°60'612.7
2018-Apr-18 00:30N 26°20' W 079°60'613.0
2018-Apr-18 00:00N 26°27' W 079°60'612.9
2018-Apr-17 23:30N 26°33' W 079°60'712.5
2018-Apr-17 22:59N 26°40' W 079°60'612.6
2018-Apr-17 22:30N 26°46' W 079°60'713.2
2018-Apr-17 22:00N 26°52' W 080°00'713.7
2018-Apr-17 21:30N 26°59' W 079°60'  
2018-Apr-15 05:17N 38°39' W 074°55'310.5
2018-Apr-15 05:00N 38°41' W 074°57'1010.2
2018-Apr-15 04:03N 38°49' W 075°03'110.6
2018-Apr-15 03:58N 38°50' W 075°04'510.0
2018-Apr-15 03:31N 38°55' W 075°06'714.2
2018-Apr-15 03:00N 39°01' W 075°09'714.0
2018-Apr-15 02:30N 39°07' W 075°13'613.0
2018-Apr-15 02:00N 39°13' W 075°18'611.9
2018-Apr-15 01:30N 39°18' W 075°22'611.2
2018-Apr-15 01:00N 39°22' W 075°27'611.4
2018-Apr-15 00:30N 39°26' W 075°32'510.8
2018-Apr-15 00:00N 39°31' W 075°33'612.1
2018-Apr-14 23:30N 39°37' W 075°35'612.9
2018-Apr-14 23:00N 39°43' W 075°30'713.5
2018-Apr-14 22:30N 39°48' W 075°25'0 0.5
2018-Apr-14 22:00N 39°48' W 075°25'0 0.0
2018-Apr-14 21:27N 39°48' W 075°25'0 0.0
2018-Apr-14 20:58N 39°48' W 075°25'0 0.0
2018-Apr-14 20:28N 39°48' W 075°25'0 0.0
2018-Apr-14 19:58N 39°48' W 075°25'0 0.0
2018-Apr-14 19:22N 39°48' W 075°25'0 0.0
2018-Apr-14 18:58N 39°48' W 075°25'0 0.0
2018-Apr-14 18:30N 39°48' W 075°25'0 0.0
2018-Apr-14 17:58N 39°48' W 075°25'0 0.0
2018-Apr-14 17:28N 39°48' W 075°25'0 0.0
2018-Apr-14 16:58N 39°48' W 075°25'0 0.0
2018-Apr-14 16:28N 39°48' W 075°25'0 0.0
2018-Apr-14 15:58N 39°48' W 075°25'0 0.0
2018-Apr-14 15:28N 39°48' W 075°25'0 0.0
2018-Apr-14 14:58N 39°48' W 075°25'0 0.0
2018-Apr-14 14:28N 39°48' W 075°25'0 0.0
2018-Apr-14 13:58N 39°48' W 075°25'0 0.0
2018-Apr-14 13:28N 39°48' W 075°25'0 0.0
2018-Apr-14 12:58N 39°48' W 075°25'0 0.0
2018-Apr-14 12:28N 39°48' W 075°25'0 0.0
2018-Apr-14 11:58N 39°48' W 075°25'0 0.0
2018-Apr-14 11:28N 39°48' W 075°25'0 0.0
2018-Apr-14 10:58N 39°48' W 075°25'0 0.0
2018-Apr-14 10:28N 39°48' W 075°25'0 0.0
2018-Apr-14 09:58N 39°48' W 075°25'0 0.0
2018-Apr-14 09:28N 39°48' W 075°25'0 0.0
2018-Apr-14 08:58N 39°48' W 075°25'0 0.0
2018-Apr-14 08:28N 39°48' W 075°25'0 0.0
2018-Apr-14 07:58N 39°48' W 075°25'0 0.0
2018-Apr-14 07:28N 39°48' W 075°25'0 0.0
2018-Apr-14 06:58N 39°48' W 075°25'0 0.0
2018-Apr-14 06:28N 39°48' W 075°25'0 0.0
2018-Apr-14 05:58N 39°48' W 075°25'0 0.1
2018-Apr-14 05:28N 39°48' W 075°25'1 1.2
2018-Apr-14 04:58N 39°49' W 075°24'0 0.0
2018-Apr-14 04:30N 39°49' W 075°24'0 0.0
2018-Apr-14 03:58N 39°49' W 075°24'0 0.0
2018-Apr-14 03:30N 39°49' W 075°24'0 0.0
2018-Apr-14 02:58N 39°49' W 075°24'0 0.0
2018-Apr-14 02:28N 39°49' W 075°24'0 0.0
2018-Apr-14 01:58N 39°49' W 075°24'0 0.0
2018-Apr-14 01:28N 39°49' W 075°24'0 0.0
2018-Apr-14 00:58N 39°49' W 075°24'0 0.0
2018-Apr-14 00:28N 39°49' W 075°24'0 0.0
2018-Apr-13 23:58N 39°49' W 075°24'0 0.0
2018-Apr-13 23:28N 39°49' W 075°24'0 0.0
2018-Apr-13 22:58N 39°49' W 075°24'0 0.0
2018-Apr-13 22:28N 39°49' W 075°24'0 0.0
2018-Apr-13 21:58N 39°49' W 075°24'0 0.0
2018-Apr-13 21:28N 39°49' W 075°24'0 0.0
2018-Apr-13 20:58N 39°49' W 075°24'0 0.0
2018-Apr-13 20:28N 39°49' W 075°24'0 0.0
2018-Apr-13 19:58N 39°49' W 075°24'0 0.0
2018-Apr-13 19:28N 39°49' W 075°24'0 0.0
2018-Apr-13 18:58N 39°49' W 075°24'0 0.0
2018-Apr-13 18:28N 39°49' W 075°24'0 0.0
2018-Apr-13 17:58N 39°49' W 075°24'0 0.0
2018-Apr-13 17:28N 39°49' W 075°24'0 0.0
2018-Apr-13 16:58N 39°49' W 075°24'0 0.0
2018-Apr-13 16:28N 39°49' W 075°24'0 0.0
2018-Apr-13 15:58N 39°49' W 075°24'0 0.0
2018-Apr-13 15:28N 39°49' W 075°24'0 0.0
2018-Apr-13 14:58N 39°49' W 075°24'0 0.0
2018-Apr-13 14:28N 39°49' W 075°24'0 0.0
2018-Apr-13 14:00N 39°49' W 075°24'1 1.7
2018-Apr-13 13:30N 39°48' W 075°25'3 6.3
2018-Apr-13 13:00N 39°46' W 075°28'510.6
2018-Apr-13 12:30N 39°41' W 075°31'611.5
2018-Apr-13 12:00N 39°36' W 075°34'612.3
2018-Apr-13 11:30N 39°30' W 075°33'611.7
2018-Apr-13 11:00N 39°24' W 075°30'612.7
2018-Apr-13 10:30N 39°20' W 075°25'612.6
2018-Apr-13 10:00N 39°15' W 075°19'713.5
2018-Apr-13 09:30N 39°09' W 075°15'612.0
2018-Apr-13 09:00N 39°04' W 075°11'611.9
2018-Apr-13 08:30N 38°59' W 075°08'  
2018-Apr-10 08:27N 27°03' W 079°44'817.2
2018-Apr-10 08:00N 26°55' W 079°44'917.3
2018-Apr-10 07:30N 26°46' W 079°45'917.3
2018-Apr-10 07:01N 26°38' W 079°45'917.3
2018-Apr-10 06:31N 26°29' W 079°46'917.2
2018-Apr-10 06:01N 26°21' W 079°47'917.2
2018-Apr-10 05:30N 26°12' W 079°47'817.2
2018-Apr-10 05:01N 26°04' W 079°48'917.3
2018-Apr-10 04:30N 25°55' W 079°49'917.4
2018-Apr-10 04:01N 25°47' W 079°51'917.4
2018-Apr-10 03:30N 25°38' W 079°53'917.5
2018-Apr-10 03:00N 25°29' W 079°55'917.4
2018-Apr-10 02:30N 25°21' W 079°57'817.1
2018-Apr-10 02:00N 25°13' W 080°00'1916.7
2018-Apr-10 00:52N 24°56' W 080°10'615.6
2018-Apr-10 00:30N 24°52' W 080°14'915.6
2018-Apr-09 23:55N 24°44' W 080°20'615.4
2018-Apr-09 23:30N 24°40' W 080°25'  
Track history (hours):
 
Tides and Currents Weather Stations Pressure Air Temp Water Temp Dewpoint Dewpoint Depression Visibility Wind Speed Wind Dir Waves Ship Positions

American Phoenix

Owner: Seabulk Tankers, Inc., Fort Lauderdale, FL. More information available from US FCC via Universal Licensing System.

Last reported at 2018-Apr-18 12:50 UTC. Time now 2018-Apr-24 14:29 UTC.
Position N 24°25' W 081°14'.

Length 184 m; draft 8.3 m.

Type: Ship. MMSI: 367518920.

Date/timePositionNaut miles runAvg speedWind from/ knotsBaromVisibWave heightAir tempDewpointWater temp
2018-Apr-18 12:50N 24°25' W 081°14'514.8
2018-Apr-18 12:29N 24°26' W 081°09'814.7
2018-Apr-18 11:59N 24°28' W 081°01'714.6
2018-Apr-18 11:29N 24°31' W 080°53'714.5
2018-Apr-18 11:00N 24°33' W 080°46'813.9
2018-Apr-18 10:27N 24°37' W 080°39'614.0
2018-Apr-18 10:00N 24°41' W 080°33'814.2
2018-Apr-18 09:27N 24°45' W 080°26'613.9
2018-Apr-18 09:00N 24°49' W 080°21'713.1
2018-Apr-18 08:30N 24°53' W 080°15'612.3
2018-Apr-18 08:00N 24°57' W 080°10'1011.8
2018-Apr-18 07:10N 25°05' W 080°05'411.7
2018-Apr-18 06:50N 25°09' W 080°03'411.5
2018-Apr-18 06:30N 25°12' W 080°01'611.3
2018-Apr-18 06:00N 25°17' W 079°58'511.1
2018-Apr-18 05:30N 25°23' W 079°57'511.0
2018-Apr-18 05:00N 25°28' W 079°56'611.1
2018-Apr-18 04:30N 25°34' W 079°55'611.2
2018-Apr-18 04:00N 25°39' W 079°56'611.7
2018-Apr-18 03:30N 25°45' W 079°58'611.9
2018-Apr-18 03:00N 25°50' W 080°00'611.6
2018-Apr-18 02:30N 25°56' W 080°00'611.9
2018-Apr-18 02:00N 26°02' W 080°00'611.8
2018-Apr-18 01:30N 26°08' W 079°60'611.8
2018-Apr-18 01:00N 26°14' W 079°60'612.7
2018-Apr-18 00:30N 26°20' W 079°60'613.0
2018-Apr-18 00:00N 26°27' W 079°60'612.9
2018-Apr-17 23:30N 26°33' W 079°60'712.5
2018-Apr-17 22:59N 26°40' W 079°60'612.6
2018-Apr-17 22:30N 26°46' W 079°60'713.2
2018-Apr-17 22:00N 26°52' W 080°00'713.7
2018-Apr-17 21:30N 26°59' W 079°60'  
2018-Apr-15 05:17N 38°39' W 074°55'310.5
2018-Apr-15 05:00N 38°41' W 074°57'1010.2
2018-Apr-15 04:03N 38°49' W 075°03'110.6
2018-Apr-15 03:58N 38°50' W 075°04'510.0
2018-Apr-15 03:31N 38°55' W 075°06'714.2
2018-Apr-15 03:00N 39°01' W 075°09'714.0
2018-Apr-15 02:30N 39°07' W 075°13'613.0
2018-Apr-15 02:00N 39°13' W 075°18'611.9
2018-Apr-15 01:30N 39°18' W 075°22'611.2
2018-Apr-15 01:00N 39°22' W 075°27'611.4
2018-Apr-15 00:30N 39°26' W 075°32'510.8
2018-Apr-15 00:00N 39°31' W 075°33'612.1
2018-Apr-14 23:30N 39°37' W 075°35'612.9
2018-Apr-14 23:00N 39°43' W 075°30'713.5
2018-Apr-14 22:30N 39°48' W 075°25'0 0.5
2018-Apr-14 22:00N 39°48' W 075°25'0 0.0
2018-Apr-14 21:27N 39°48' W 075°25'0 0.0
2018-Apr-14 20:58N 39°48' W 075°25'0 0.0
2018-Apr-14 20:28N 39°48' W 075°25'0 0.0
2018-Apr-14 19:58N 39°48' W 075°25'0 0.0
2018-Apr-14 19:22N 39°48' W 075°25'0 0.0
2018-Apr-14 18:58N 39°48' W 075°25'0 0.0
2018-Apr-14 18:30N 39°48' W 075°25'0 0.0
2018-Apr-14 17:58N 39°48' W 075°25'0 0.0
2018-Apr-14 17:28N 39°48' W 075°25'0 0.0
2018-Apr-14 16:58N 39°48' W 075°25'0 0.0
2018-Apr-14 16:28N 39°48' W 075°25'0 0.0
2018-Apr-14 15:58N 39°48' W 075°25'0 0.0
2018-Apr-14 15:28N 39°48' W 075°25'0 0.0
2018-Apr-14 14:58N 39°48' W 075°25'0 0.0
2018-Apr-14 14:28N 39°48' W 075°25'0 0.0
2018-Apr-14 13:58N 39°48' W 075°25'0 0.0
2018-Apr-14 13:28N 39°48' W 075°25'0 0.0
2018-Apr-14 12:58N 39°48' W 075°25'0 0.0
2018-Apr-14 12:28N 39°48' W 075°25'0 0.0
2018-Apr-14 11:58N 39°48' W 075°25'0 0.0
2018-Apr-14 11:28N 39°48' W 075°25'0 0.0
2018-Apr-14 10:58N 39°48' W 075°25'0 0.0
2018-Apr-14 10:28N 39°48' W 075°25'0 0.0
2018-Apr-14 09:58N 39°48' W 075°25'0 0.0
2018-Apr-14 09:28N 39°48' W 075°25'0 0.0
2018-Apr-14 08:58N 39°48' W 075°25'0 0.0
2018-Apr-14 08:28N 39°48' W 075°25'0 0.0
2018-Apr-14 07:58N 39°48' W 075°25'0 0.0
2018-Apr-14 07:28N 39°48' W 075°25'0 0.0
2018-Apr-14 06:58N 39°48' W 075°25'0 0.0
2018-Apr-14 06:28N 39°48' W 075°25'0 0.0
2018-Apr-14 05:58N 39°48' W 075°25'0 0.1
2018-Apr-14 05:28N 39°48' W 075°25'1 1.2
2018-Apr-14 04:58N 39°49' W 075°24'0 0.0
2018-Apr-14 04:30N 39°49' W 075°24'0 0.0
2018-Apr-14 03:58N 39°49' W 075°24'0 0.0
2018-Apr-14 03:30N 39°49' W 075°24'0 0.0
2018-Apr-14 02:58N 39°49' W 075°24'0 0.0
2018-Apr-14 02:28N 39°49' W 075°24'0 0.0
2018-Apr-14 01:58N 39°49' W 075°24'0 0.0
2018-Apr-14 01:28N 39°49' W 075°24'0 0.0
2018-Apr-14 00:58N 39°49' W 075°24'0 0.0
2018-Apr-14 00:28N 39°49' W 075°24'0 0.0
2018-Apr-13 23:58N 39°49' W 075°24'0 0.0
2018-Apr-13 23:28N 39°49' W 075°24'0 0.0
2018-Apr-13 22:58N 39°49' W 075°24'0 0.0
2018-Apr-13 22:28N 39°49' W 075°24'0 0.0
2018-Apr-13 21:58N 39°49' W 075°24'0 0.0
2018-Apr-13 21:28N 39°49' W 075°24'0 0.0
2018-Apr-13 20:58N 39°49' W 075°24'0 0.0
2018-Apr-13 20:28N 39°49' W 075°24'0 0.0
2018-Apr-13 19:58N 39°49' W 075°24'0 0.0
2018-Apr-13 19:28N 39°49' W 075°24'0 0.0
2018-Apr-13 18:58N 39°49' W 075°24'0 0.0
2018-Apr-13 18:28N 39°49' W 075°24'0 0.0
2018-Apr-13 17:58N 39°49' W 075°24'0 0.0
2018-Apr-13 17:28N 39°49' W 075°24'0 0.0
2018-Apr-13 16:58N 39°49' W 075°24'0 0.0
2018-Apr-13 16:28N 39°49' W 075°24'0 0.0
2018-Apr-13 15:58N 39°49' W 075°24'0 0.0
2018-Apr-13 15:28N 39°49' W 075°24'0 0.0
2018-Apr-13 14:58N 39°49' W 075°24'0 0.0
2018-Apr-13 14:28N 39°49' W 075°24'0 0.0
2018-Apr-13 14:00N 39°49' W 075°24'1 1.7
2018-Apr-13 13:30N 39°48' W 075°25'3 6.3
2018-Apr-13 13:00N 39°46' W 075°28'510.6
2018-Apr-13 12:30N 39°41' W 075°31'611.5
2018-Apr-13 12:00N 39°36' W 075°34'612.3
2018-Apr-13 11:30N 39°30' W 075°33'611.7
2018-Apr-13 11:00N 39°24' W 075°30'612.7
2018-Apr-13 10:30N 39°20' W 075°25'612.6
2018-Apr-13 10:00N 39°15' W 075°19'713.5
2018-Apr-13 09:30N 39°09' W 075°15'612.0
2018-Apr-13 09:00N 39°04' W 075°11'611.9
2018-Apr-13 08:30N 38°59' W 075°08'  
2018-Apr-10 08:27N 27°03' W 079°44'817.2
2018-Apr-10 08:00N 26°55' W 079°44'917.3
2018-Apr-10 07:30N 26°46' W 079°45'917.3
2018-Apr-10 07:01N 26°38' W 079°45'917.3
2018-Apr-10 06:31N 26°29' W 079°46'917.2
2018-Apr-10 06:01N 26°21' W 079°47'917.2
2018-Apr-10 05:30N 26°12' W 079°47'817.2
2018-Apr-10 05:01N 26°04' W 079°48'917.3
2018-Apr-10 04:30N 25°55' W 079°49'917.4
2018-Apr-10 04:01N 25°47' W 079°51'917.4
2018-Apr-10 03:30N 25°38' W 079°53'917.5
2018-Apr-10 03:00N 25°29' W 079°55'917.4
2018-Apr-10 02:30N 25°21' W 079°57'817.1
2018-Apr-10 02:00N 25°13' W 080°00'1916.7
2018-Apr-10 00:52N 24°56' W 080°10'615.6
2018-Apr-10 00:30N 24°52' W 080°14'915.6
2018-Apr-09 23:55N 24°44' W 080°20'615.4
2018-Apr-09 23:30N 24°40' W 080°25'  

Dump ship's entire track history